Terminal Aerodrome Forecast
Issued by NWS Cleveland, OH

Home | Current Version | Previous Version | Graphics & Text | Print | Product List | Glossary On
Versions: 1 2 3 4 5 6 7 8 9 10 11 12 13 14 15 16 17 18 19 20 21 22 23 24 25 26 27 28 29 30
000
FTUS41 KCLE 291100 RRA
TAFCLE
TAF
KCLE 291142Z 2912/3018 18015G25KT P6SM SCT045 OVC080
      TEMPO 2913/2916 -FZDZPL BKN025 OVC035
     FM291600 21012G20KT 3SM -DZ BR SCT008 OVC015
      TEMPO 2921/2923 2SM -RASN OVC008
     FM292300 29015G25KT 3/4SM -SN BR OVC004
     FM300400 30015G25KT 4SM -SN BKN008 OVC015
     FM301300 30012G20KT P6SM SCT008 OVC015=

USA.gov is the U.S. government's official web portal to all federal, state and local government web resources and services.